createdAt,value
2016-10-11T00:00:22.811Z,1015.81
2016-10-11T00:01:04.552Z,1015.82
2016-10-11T00:01:46.431Z,1015.83
2016-10-11T00:02:28.246Z,1015.83
2016-10-11T00:03:09.773Z,1015.84
2016-10-11T00:03:51.618Z,1015.82
2016-10-11T00:04:33.422Z,1015.83
2016-10-11T00:05:15.155Z,1015.84
2016-10-11T00:05:56.821Z,1015.82
2016-10-11T00:06:38.286Z,1015.87
2016-10-11T00:08:53.439Z,1015.86
2016-10-11T00:09:35.070Z,1015.85
2016-10-11T00:10:16.831Z,1015.89
2016-10-11T00:10:58.556Z,1015.9
2016-10-11T00:11:40.140Z,1015.88
2016-10-11T00:14:00.955Z,1015.88
2016-10-11T00:14:42.753Z,1015.88
2016-10-11T00:15:24.480Z,1015.86
2016-10-11T00:16:05.879Z,1015.85
2016-10-11T00:16:47.583Z,1015.88
2016-10-11T00:17:29.331Z,1015.84
2016-10-11T00:18:11.161Z,1015.85
2016-10-11T00:18:52.919Z,1015.86
2016-10-11T00:19:34.691Z,1015.81
2016-10-11T00:20:16.154Z,1015.85
2016-10-11T00:22:31.567Z,1015.84
2016-10-11T00:23:13.265Z,1015.83
2016-10-11T00:23:54.876Z,1015.83
2016-10-11T00:25:54.909Z,1015.81
2016-10-11T00:26:36.574Z,1015.83
2016-10-11T00:27:18.363Z,1015.81
2016-10-11T00:27:59.310Z,1015.8
2016-10-11T00:28:39.851Z,1015.82
2016-10-11T00:29:21.059Z,1015.8
2016-10-11T00:31:35.724Z,1015.82
2016-10-11T00:32:16.645Z,1015.8
2016-10-11T00:32:58.131Z,1015.77
2016-10-11T00:33:38.845Z,1015.8
2016-10-11T00:34:19.379Z,1015.78
2016-10-11T00:34:59.914Z,1015.79
2016-10-11T00:35:40.449Z,1015.77
2016-10-11T00:36:21.680Z,1015.8
2016-10-11T00:37:03.341Z,1015.8
2016-10-11T00:37:44.958Z,1015.79
2016-10-11T00:40:00.314Z,1015.77
2016-10-11T00:40:42.124Z,1015.79
2016-10-11T00:41:23.847Z,1015.75
2016-10-11T00:42:05.638Z,1015.75
2016-10-11T00:42:47.380Z,1015.76
2016-10-11T00:43:28.985Z,1015.77
2016-10-11T00:45:59.962Z,1015.73
2016-10-11T00:46:41.699Z,1015.82
2016-10-11T00:47:23.430Z,1015.73
2016-10-11T00:48:05.123Z,1015.77
2016-10-11T00:48:46.887Z,1015.73
2016-10-11T00:51:02.299Z,1015.72
2016-10-11T00:51:44.045Z,1015.77
2016-10-11T00:52:25.784Z,1015.75
2016-10-11T00:53:07.423Z,1015.67
2016-10-11T00:53:49.201Z,1015.71
2016-10-11T00:54:30.897Z,1015.75
2016-10-11T00:55:12.592Z,1015.68
2016-10-11T00:55:54.248Z,1015.68
2016-10-11T00:57:48.970Z,1015.71
2016-10-11T00:58:30.749Z,1015.69
2016-10-11T00:59:12.481Z,1015.7
2016-10-11T00:59:54.206Z,1015.71
2016-10-11T01:00:35.943Z,1015.72
2016-10-11T01:01:17.568Z,1015.73
2016-10-11T01:01:59.294Z,1015.71
2016-10-11T01:04:29.620Z,1015.72
2016-10-11T01:05:10.151Z,1015.74
2016-10-11T01:05:50.677Z,1015.75
2016-10-11T01:06:31.219Z,1015.74
2016-10-11T01:07:11.760Z,1015.73
2016-10-11T01:07:52.297Z,1015.76
2016-10-11T01:08:32.834Z,1015.79
2016-10-11T01:09:13.371Z,1015.79
2016-10-11T01:09:53.904Z,1015.77
2016-10-11T01:10:34.437Z,1015.76
2016-10-11T01:11:14.970Z,1015.75
2016-10-11T01:11:55.501Z,1015.76
2016-10-11T01:12:36.040Z,1015.77
2016-10-11T01:13:16.563Z,1015.7
2016-10-11T01:13:57.100Z,1015.71
2016-10-11T01:14:37.636Z,1015.71
2016-10-11T01:15:18.172Z,1015.7
2016-10-11T01:15:58.705Z,1015.7
2016-10-11T01:16:39.244Z,1015.72
2016-10-11T01:17:19.784Z,1015.7
2016-10-11T01:18:00.313Z,1015.67
2016-10-11T01:18:40.852Z,1015.7
2016-10-11T01:19:21.385Z,1015.7
2016-10-11T01:20:01.925Z,1015.67
2016-10-11T01:20:42.452Z,1015.68
2016-10-11T01:21:22.986Z,1015.64
2016-10-11T01:22:03.515Z,1015.68
2016-10-11T01:22:44.049Z,1015.65
2016-10-11T01:23:24.589Z,1015.64
2016-10-11T01:24:05.125Z,1015.68
2016-10-11T01:24:45.662Z,1015.68
2016-10-11T01:25:26.200Z,1015.66
2016-10-11T01:26:06.736Z,1015.66
2016-10-11T01:26:47.268Z,1015.63
2016-10-11T01:27:27.797Z,1015.61
2016-10-11T01:28:08.331Z,1015.63
2016-10-11T01:28:48.865Z,1015.64
2016-10-11T01:29:29.403Z,1015.63
2016-10-11T01:30:09.943Z,1015.59
2016-10-11T01:30:50.465Z,1015.59
2016-10-11T01:31:30.997Z,1015.58
2016-10-11T01:32:11.529Z,1015.56
2016-10-11T01:32:52.065Z,1015.56
2016-10-11T01:33:32.605Z,1015.59
2016-10-11T01:34:13.145Z,1015.56
2016-10-11T01:34:53.651Z,1015.57
2016-10-11T01:35:34.191Z,1015.54
2016-10-11T01:36:14.728Z,1015.52
2016-10-11T01:36:55.263Z,1015.51
2016-10-11T01:37:35.791Z,1015.5
2016-10-11T01:38:16.323Z,1015.52
2016-10-11T01:38:56.854Z,1015.54
2016-10-11T01:39:37.390Z,1015.51
2016-10-11T01:40:17.933Z,1015.5
2016-10-11T01:40:58.462Z,1015.52
2016-10-11T01:41:39.002Z,1015.52
2016-10-11T01:42:19.534Z,1015.53
2016-10-11T01:43:00.072Z,1015.52
2016-10-11T01:43:40.605Z,1015.53
2016-10-11T01:44:21.146Z,1015.55
2016-10-11T01:45:01.686Z,1015.53
2016-10-11T01:45:42.209Z,1015.56
2016-10-11T01:46:22.753Z,1015.57
2016-10-11T01:47:03.279Z,1015.55
2016-10-11T01:47:43.822Z,1015.57
2016-10-11T01:48:24.351Z,1015.62
2016-10-11T01:49:04.888Z,1015.57
2016-10-11T01:49:45.425Z,1015.58
2016-10-11T01:50:25.960Z,1015.59
2016-10-11T01:51:06.483Z,1015.61
2016-10-11T01:51:47.025Z,1015.59
2016-10-11T01:52:27.560Z,1015.58
2016-10-11T01:53:08.100Z,1015.61
2016-10-11T01:53:48.641Z,1015.62
2016-10-11T01:54:29.168Z,1015.59
2016-10-11T01:55:09.705Z,1015.56
2016-10-11T01:55:50.231Z,1015.53
2016-10-11T01:56:30.764Z,1015.54
2016-10-11T01:57:11.300Z,1015.56
2016-10-11T01:57:51.829Z,1015.54
2016-10-11T01:58:32.360Z,1015.54
2016-10-11T01:59:12.895Z,1015.56
2016-10-11T01:59:53.421Z,1015.57
2016-10-11T02:00:33.951Z,1015.58
2016-10-11T02:01:14.488Z,1015.57
2016-10-11T02:01:55.026Z,1015.57
2016-10-11T02:02:35.542Z,1015.55
2016-10-11T02:03:16.070Z,1015.59
2016-10-11T02:03:56.609Z,1015.63
2016-10-11T02:04:37.149Z,1015.55
2016-10-11T02:05:17.688Z,1015.55
2016-10-11T02:05:58.220Z,1015.56
2016-10-11T02:06:38.755Z,1015.57
2016-10-11T02:07:19.290Z,1015.57
2016-10-11T02:07:59.823Z,1015.57
2016-10-11T02:08:40.360Z,1015.57
2016-10-11T02:09:20.905Z,1015.61
2016-10-11T02:10:01.443Z,1015.59
2016-10-11T02:10:41.979Z,1015.59
2016-10-11T02:11:22.516Z,1015.59
2016-10-11T02:12:03.050Z,1015.57
2016-10-11T02:12:43.585Z,1015.57
2016-10-11T02:13:24.126Z,1015.61
2016-10-11T02:14:04.663Z,1015.56
2016-10-11T02:14:45.206Z,1015.56
2016-10-11T02:15:25.744Z,1015.55
2016-10-11T02:16:06.279Z,1015.57
2016-10-11T02:16:46.802Z,1015.55
2016-10-11T02:17:27.331Z,1015.52
2016-10-11T02:18:07.871Z,1015.5
2016-10-11T02:18:48.409Z,1015.5
2016-10-11T02:19:28.945Z,1015.5
2016-10-11T02:20:09.485Z,1015.52
2016-10-11T02:20:50.026Z,1015.49
2016-10-11T02:21:30.552Z,1015.49
2016-10-11T02:22:11.081Z,1015.47
2016-10-11T02:22:51.613Z,1015.5
2016-10-11T02:23:32.150Z,1015.49
2016-10-11T02:24:12.682Z,1015.48
2016-10-11T02:24:53.223Z,1015.47
2016-10-11T02:25:33.752Z,1015.49
2016-10-11T02:26:14.287Z,1015.47
2016-10-11T02:26:54.820Z,1015.5
2016-10-11T02:27:35.359Z,1015.51
2016-10-11T02:28:15.900Z,1015.46
2016-10-11T02:28:56.436Z,1015.51
2016-10-11T02:29:36.971Z,1015.53
2016-10-11T02:30:17.504Z,1015.5
2016-10-11T02:30:58.037Z,1015.49
2016-10-11T02:31:38.577Z,1015.52
2016-10-11T02:32:19.114Z,1015.48
2016-10-11T02:32:59.654Z,1015.51
2016-10-11T02:33:40.190Z,1015.5
2016-10-11T02:34:20.732Z,1015.52
2016-10-11T02:35:01.275Z,1015.5
2016-10-11T02:35:41.809Z,1015.51
2016-10-11T02:36:22.341Z,1015.53
2016-10-11T02:37:02.875Z,1015.5
2016-10-11T02:37:43.415Z,1015.5
2016-10-11T02:38:23.941Z,1015.52
2016-10-11T02:39:04.476Z,1015.5
2016-10-11T02:39:45.010Z,1015.54
2016-10-11T02:40:25.545Z,1015.52
2016-10-11T02:41:06.083Z,1015.5
2016-10-11T02:41:46.625Z,1015.51
2016-10-11T02:42:27.164Z,1015.52
2016-10-11T02:43:07.704Z,1015.5
2016-10-11T02:43:48.239Z,1015.51
2016-10-11T02:44:28.768Z,1015.49
2016-10-11T02:45:09.307Z,1015.47
2016-10-11T02:45:49.826Z,1015.47
2016-10-11T02:46:30.365Z,1015.45
2016-10-11T02:47:10.900Z,1015.43
2016-10-11T02:47:51.434Z,1015.45
2016-10-11T02:48:31.968Z,1015.44
2016-10-11T02:49:12.502Z,1015.41
2016-10-11T02:49:53.034Z,1015.43
2016-10-11T02:50:33.558Z,1015.46
2016-10-11T02:51:14.099Z,1015.45
2016-10-11T02:51:54.615Z,1015.48
2016-10-11T02:52:35.154Z,1015.45
2016-10-11T02:53:15.687Z,1015.43
2016-10-11T02:53:56.223Z,1015.46
2016-10-11T02:54:36.766Z,1015.44
2016-10-11T02:55:17.301Z,1015.48
2016-10-11T02:55:57.836Z,1015.48
2016-10-11T02:56:38.370Z,1015.47
2016-10-11T02:57:18.907Z,1015.47
2016-10-11T02:57:59.447Z,1015.48
2016-10-11T02:58:39.993Z,1015.48
2016-10-11T02:59:20.528Z,1015.49
2016-10-11T03:00:01.067Z,1015.49
2016-10-11T03:00:41.593Z,1015.48
2016-10-11T03:01:22.128Z,1015.45
2016-10-11T03:02:02.665Z,1015.47
2016-10-11T03:02:43.196Z,1015.47
2016-10-11T03:03:23.739Z,1015.45
2016-10-11T03:04:04.277Z,1015.42
2016-10-11T03:04:44.819Z,1015.43
2016-10-11T03:05:25.359Z,1015.42
2016-10-11T03:06:05.888Z,1015.42
2016-10-11T03:06:46.422Z,1015.39
2016-10-11T03:07:26.964Z,1015.44
2016-10-11T03:08:07.495Z,1015.4
2016-10-11T03:08:48.038Z,1015.43
2016-10-11T03:09:28.569Z,1015.42
2016-10-11T03:10:09.112Z,1015.42
2016-10-11T03:10:49.639Z,1015.45
2016-10-11T03:11:30.166Z,1015.43
2016-10-11T03:12:10.710Z,1015.46
2016-10-11T03:12:51.248Z,1015.46
2016-10-11T03:13:31.785Z,1015.45
2016-10-11T03:14:12.325Z,1015.46
2016-10-11T03:14:52.865Z,1015.47
2016-10-11T03:15:33.405Z,1015.49
2016-10-11T03:16:13.930Z,1015.52
2016-10-11T03:16:54.464Z,1015.47
2016-10-11T03:17:34.999Z,1015.47
2016-10-11T03:18:15.535Z,1015.45
2016-10-11T03:18:56.072Z,1015.44
2016-10-11T03:19:36.607Z,1015.45
2016-10-11T03:20:17.127Z,1015.43
2016-10-11T03:20:57.674Z,1015.41
2016-10-11T03:21:38.247Z,1015.46
2016-10-11T03:22:18.777Z,1015.46
2016-10-11T03:22:59.317Z,1015.47
2016-10-11T03:23:39.863Z,1015.46
2016-10-11T03:24:20.388Z,1015.45
2016-10-11T03:25:00.927Z,1015.47
2016-10-11T03:25:41.448Z,1015.49
2016-10-11T03:26:21.976Z,1015.48
2016-10-11T03:27:02.518Z,1015.51
2016-10-11T03:27:43.054Z,1015.47
2016-10-11T03:28:23.588Z,1015.49
2016-10-11T03:29:04.141Z,1015.45
2016-10-11T03:29:44.650Z,1015.48
2016-10-11T03:30:25.209Z,1015.44
2016-10-11T03:31:05.746Z,1015.47
2016-10-11T03:31:46.255Z,1015.45
2016-10-11T03:32:26.761Z,1015.5
2016-10-11T03:33:07.261Z,1015.46
2016-10-11T03:33:47.780Z,1015.45
2016-10-11T03:34:28.315Z,1015.48
2016-10-11T03:35:08.834Z,1015.48
2016-10-11T03:35:49.376Z,1015.5
2016-10-11T03:36:29.912Z,1015.47
2016-10-11T03:37:10.443Z,1015.48
2016-10-11T03:37:50.962Z,1015.49
2016-10-11T03:38:31.528Z,1015.46
2016-10-11T03:39:12.035Z,1015.48
2016-10-11T03:39:52.576Z,1015.45
2016-10-11T03:40:33.115Z,1015.47
2016-10-11T03:41:13.644Z,1015.48
2016-10-11T03:41:54.188Z,1015.47
2016-10-11T03:42:34.717Z,1015.48
2016-10-11T03:43:15.242Z,1015.45
2016-10-11T03:43:55.779Z,1015.45
2016-10-11T03:44:36.320Z,1015.48
2016-10-11T03:45:16.848Z,1015.5
2016-10-11T03:45:57.373Z,1015.49
2016-10-11T03:46:37.907Z,1015.5
2016-10-11T03:47:18.443Z,1015.5
2016-10-11T03:47:58.967Z,1015.48
2016-10-11T03:48:39.507Z,1015.49
2016-10-11T03:49:20.043Z,1015.5
2016-10-11T03:50:00.617Z,1015.48
2016-10-11T03:50:41.154Z,1015.5
2016-10-11T03:51:21.691Z,1015.46
2016-10-11T03:52:02.219Z,1015.52
2016-10-11T03:52:42.744Z,1015.46
2016-10-11T03:53:23.299Z,1015.48
2016-10-11T03:54:03.835Z,1015.47
2016-10-11T03:54:44.378Z,1015.49
2016-10-11T03:55:24.930Z,1015.5
2016-10-11T03:56:05.520Z,1015.47
2016-10-11T03:56:46.049Z,1015.49
2016-10-11T03:57:26.587Z,1015.47
2016-10-11T03:58:07.108Z,1015.48
2016-10-11T03:58:47.658Z,1015.45
2016-10-11T03:59:28.211Z,1015.46
2016-10-11T04:00:08.761Z,1015.48
2016-10-11T04:00:49.272Z,1015.51
2016-10-11T04:01:29.802Z,1015.48
2016-10-11T04:02:10.346Z,1015.51
2016-10-11T04:02:50.880Z,1015.48
2016-10-11T04:03:31.419Z,1015.51
2016-10-11T04:04:11.961Z,1015.53
2016-10-11T04:04:52.500Z,1015.49
2016-10-11T04:05:33.019Z,1015.48
2016-10-11T04:06:13.548Z,1015.48
2016-10-11T04:06:54.086Z,1015.48
2016-10-11T04:07:34.808Z,1015.48
2016-10-11T04:08:15.429Z,1015.47
2016-10-11T04:08:55.962Z,1015.45
2016-10-11T04:09:36.492Z,1015.49
2016-10-11T04:10:17.035Z,1015.46
2016-10-11T04:10:57.569Z,1015.44
2016-10-11T04:11:38.110Z,1015.45
2016-10-11T04:12:18.634Z,1015.45
2016-10-11T04:12:59.189Z,1015.43
2016-10-11T04:13:39.715Z,1015.41
2016-10-11T04:14:20.371Z,1015.42
2016-10-11T04:15:00.912Z,1015.42
2016-10-11T04:15:41.465Z,1015.42
2016-10-11T04:16:21.987Z,1015.41
2016-10-11T04:17:02.523Z,1015.41
2016-10-11T04:17:43.062Z,1015.42
2016-10-11T04:18:23.608Z,1015.43
2016-10-11T04:19:04.144Z,1015.41
2016-10-11T04:19:44.664Z,1015.41
2016-10-11T04:20:25.261Z,1015.42
2016-10-11T04:21:05.866Z,1015.43
2016-10-11T04:21:46.406Z,1015.42
2016-10-11T04:22:26.948Z,1015.42
2016-10-11T04:23:07.486Z,1015.43
2016-10-11T04:23:48.026Z,1015.45
2016-10-11T04:24:28.557Z,1015.42
2016-10-11T04:25:09.090Z,1015.47
2016-10-11T04:25:49.620Z,1015.44
2016-10-11T04:26:30.148Z,1015.42
2016-10-11T04:27:10.690Z,1015.4
2016-10-11T04:27:51.231Z,1015.37
2016-10-11T04:28:31.758Z,1015.37
2016-10-11T04:29:12.287Z,1015.37
2016-10-11T04:29:52.833Z,1015.36
2016-10-11T04:30:33.369Z,1015.38
2016-10-11T04:31:13.908Z,1015.35
2016-10-11T04:31:54.451Z,1015.36
2016-10-11T04:32:34.992Z,1015.36
2016-10-11T04:33:15.525Z,1015.37
2016-10-11T04:33:56.057Z,1015.38
2016-10-11T04:34:36.593Z,1015.36
2016-10-11T04:35:17.123Z,1015.37
2016-10-11T04:35:57.661Z,1015.37
2016-10-11T04:36:38.201Z,1015.4
2016-10-11T04:37:18.730Z,1015.37
2016-10-11T04:37:59.302Z,1015.37
2016-10-11T04:38:39.825Z,1015.37
2016-10-11T04:39:20.359Z,1015.36
2016-10-11T04:40:00.909Z,1015.4
2016-10-11T04:40:41.444Z,1015.39
2016-10-11T04:41:22.007Z,1015.35
2016-10-11T04:42:02.545Z,1015.41
2016-10-11T04:42:43.077Z,1015.34
2016-10-11T04:43:23.615Z,1015.37
2016-10-11T04:44:04.145Z,1015.35
2016-10-11T04:44:44.689Z,1015.37
2016-10-11T04:45:25.217Z,1015.38
2016-10-11T04:46:05.746Z,1015.34
2016-10-11T04:46:46.291Z,1015.36
2016-10-11T04:47:26.827Z,1015.39
2016-10-11T04:48:07.382Z,1015.34
2016-10-11T04:48:47.921Z,1015.37
2016-10-11T04:49:28.465Z,1015.33
2016-10-11T04:50:09.006Z,1015.38
2016-10-11T04:50:49.528Z,1015.34
2016-10-11T04:51:30.069Z,1015.36
2016-10-11T04:52:10.595Z,1015.35
2016-10-11T04:52:51.133Z,1015.39
2016-10-11T04:53:31.697Z,1015.35
2016-10-11T04:54:12.215Z,1015.33
2016-10-11T04:54:52.785Z,1015.38
2016-10-11T04:55:33.325Z,1015.38
2016-10-11T04:56:13.875Z,1015.4
2016-10-11T04:56:54.421Z,1015.37
2016-10-11T04:57:34.962Z,1015.38
2016-10-11T04:58:15.480Z,1015.37
2016-10-11T04:58:56.012Z,1015.4
2016-10-11T04:59:36.538Z,1015.38
2016-10-11T05:00:17.077Z,1015.38
2016-10-11T05:00:57.618Z,1015.42
2016-10-11T05:01:38.151Z,1015.39
2016-10-11T05:02:18.677Z,1015.44
2016-10-11T05:02:59.200Z,1015.39
2016-10-11T05:03:39.740Z,1015.41
2016-10-11T05:04:20.280Z,1015.42
2016-10-11T05:05:00.820Z,1015.43
2016-10-11T05:05:41.353Z,1015.43
2016-10-11T05:06:21.883Z,1015.42
2016-10-11T05:07:02.418Z,1015.43
2016-10-11T05:07:42.966Z,1015.43
2016-10-11T05:08:23.496Z,1015.43
2016-10-11T05:09:04.033Z,1015.41
2016-10-11T05:09:44.565Z,1015.44
2016-10-11T05:10:25.104Z,1015.39
2016-10-11T05:11:05.620Z,1015.39
2016-10-11T05:11:46.174Z,1015.42
2016-10-11T05:12:26.718Z,1015.41
2016-10-11T05:13:07.249Z,1015.39
2016-10-11T05:13:47.799Z,1015.4
2016-10-11T05:14:28.337Z,1015.37
2016-10-11T05:15:08.878Z,1015.37
2016-10-11T05:15:49.406Z,1015.4
2016-10-11T05:16:29.939Z,1015.36
2016-10-11T05:17:10.480Z,1015.39
2016-10-11T05:17:50.998Z,1015.39
2016-10-11T05:18:31.539Z,1015.41
2016-10-11T05:19:12.082Z,1015.37
2016-10-11T05:19:52.598Z,1015.38
2016-10-11T05:20:33.150Z,1015.4
2016-10-11T05:21:13.691Z,1015.36
2016-10-11T05:21:54.226Z,1015.37
2016-10-11T05:22:34.755Z,1015.37
2016-10-11T05:23:15.284Z,1015.38
2016-10-11T05:23:55.825Z,1015.32
2016-10-11T05:24:36.347Z,1015.34
2016-10-11T05:25:16.893Z,1015.32
2016-10-11T05:25:57.438Z,1015.34
2016-10-11T05:26:37.968Z,1015.32
2016-10-11T05:27:18.507Z,1015.33
2016-10-11T05:27:59.046Z,1015.29
2016-10-11T05:28:39.592Z,1015.32
2016-10-11T05:29:20.116Z,1015.27
2016-10-11T05:30:00.648Z,1015.34
2016-10-11T05:30:41.195Z,1015.29
2016-10-11T05:31:21.722Z,1015.33
2016-10-11T05:32:02.285Z,1015.3
2016-10-11T05:32:42.826Z,1015.36
2016-10-11T05:33:23.362Z,1015.34
2016-10-11T05:34:03.895Z,1015.34
2016-10-11T05:34:44.455Z,1015.34
2016-10-11T05:35:25.001Z,1015.35
2016-10-11T05:36:05.544Z,1015.34
2016-10-11T05:36:46.084Z,1015.35
2016-10-11T05:37:26.635Z,1015.33
2016-10-11T05:38:07.167Z,1015.32
2016-10-11T05:38:47.707Z,1015.35
2016-10-11T05:39:28.241Z,1015.36
2016-10-11T05:40:08.777Z,1015.34
2016-10-11T05:40:49.302Z,1015.36
2016-10-11T05:41:29.846Z,1015.36
2016-10-11T05:42:10.422Z,1015.37
2016-10-11T05:42:50.963Z,1015.34
2016-10-11T05:43:31.502Z,1015.35
2016-10-11T05:44:12.052Z,1015.36
2016-10-11T05:44:52.580Z,1015.35
2016-10-11T05:45:33.134Z,1015.34
2016-10-11T05:46:13.656Z,1015.36
2016-10-11T05:46:54.180Z,1015.37
2016-10-11T05:47:34.703Z,1015.39
2016-10-11T05:48:15.224Z,1015.33
2016-10-11T05:48:55.752Z,1015.34
2016-10-11T05:49:36.287Z,1015.33
2016-10-11T05:50:16.835Z,1015.37
2016-10-11T05:50:57.348Z,1015.34
2016-10-11T05:51:37.864Z,1015.32
2016-10-11T05:52:18.381Z,1015.37
2016-10-11T05:52:58.921Z,1015.36
2016-10-11T05:53:39.456Z,1015.35
2016-10-11T05:54:19.982Z,1015.34
2016-10-11T05:55:00.527Z,1015.35
2016-10-11T05:55:41.058Z,1015.34
2016-10-11T05:56:21.594Z,1015.38
2016-10-11T05:57:02.115Z,1015.36
2016-10-11T05:57:42.657Z,1015.39
2016-10-11T05:58:23.211Z,1015.39
2016-10-11T05:59:03.731Z,1015.36
2016-10-11T05:59:44.273Z,1015.4
2016-10-11T06:00:24.823Z,1015.42
2016-10-11T06:01:05.337Z,1015.42
2016-10-11T06:01:45.873Z,1015.41
2016-10-11T06:02:26.410Z,1015.39
2016-10-11T06:03:06.936Z,1015.42
2016-10-11T06:03:47.456Z,1015.41
2016-10-11T06:04:28.011Z,1015.44
2016-10-11T06:05:08.537Z,1015.38
2016-10-11T06:05:49.078Z,1015.38
2016-10-11T06:06:29.613Z,1015.38
2016-10-11T06:07:10.137Z,1015.42
2016-10-11T06:07:50.687Z,1015.37
2016-10-11T06:08:31.207Z,1015.38
2016-10-11T06:09:11.769Z,1015.4
2016-10-11T06:09:52.282Z,1015.41
2016-10-11T06:10:32.812Z,1015.44
2016-10-11T06:11:13.356Z,1015.43
2016-10-11T06:11:53.882Z,1015.4
2016-10-11T06:12:34.411Z,1015.43
2016-10-11T06:13:14.956Z,1015.39
2016-10-11T06:13:55.499Z,1015.43
2016-10-11T06:14:36.042Z,1015.41
2016-10-11T06:15:16.583Z,1015.44
2016-10-11T06:15:57.119Z,1015.42
2016-10-11T06:16:37.638Z,1015.45
2016-10-11T06:17:18.179Z,1015.46
2016-10-11T06:17:58.701Z,1015.5
2016-10-11T06:18:39.245Z,1015.48
2016-10-11T06:19:19.781Z,1015.48
2016-10-11T06:20:00.326Z,1015.44
2016-10-11T06:20:40.873Z,1015.47
2016-10-11T06:21:21.419Z,1015.47
2016-10-11T06:22:01.929Z,1015.48
2016-10-11T06:22:42.471Z,1015.5
2016-10-11T06:23:23.002Z,1015.49
2016-10-11T06:24:03.541Z,1015.45
2016-10-11T06:24:44.071Z,1015.46
2016-10-11T06:25:24.599Z,1015.47
2016-10-11T06:26:05.160Z,1015.43
2016-10-11T06:26:45.703Z,1015.45
2016-10-11T06:27:26.237Z,1015.43
2016-10-11T06:28:06.762Z,1015.46
2016-10-11T06:28:47.279Z,1015.45
2016-10-11T06:29:27.821Z,1015.47
2016-10-11T06:30:08.344Z,1015.47
2016-10-11T06:30:48.886Z,1015.5
2016-10-11T06:31:29.423Z,1015.51
2016-10-11T06:32:09.958Z,1015.47
2016-10-11T06:32:50.496Z,1015.51
2016-10-11T06:33:31.034Z,1015.48
2016-10-11T06:34:11.575Z,1015.5
2016-10-11T06:34:52.097Z,1015.55
2016-10-11T06:35:32.633Z,1015.53
2016-10-11T06:36:13.165Z,1015.57
2016-10-11T06:36:53.710Z,1015.57
2016-10-11T06:37:34.243Z,1015.55
2016-10-11T06:38:14.783Z,1015.56
2016-10-11T06:38:55.324Z,1015.58
2016-10-11T06:39:35.855Z,1015.59
2016-10-11T06:40:16.396Z,1015.58
2016-10-11T06:40:56.934Z,1015.59
2016-10-11T06:41:37.472Z,1015.64
2016-10-11T06:42:18.014Z,1015.62
2016-10-11T06:42:58.554Z,1015.6
2016-10-11T06:43:39.093Z,1015.66
2016-10-11T06:44:19.632Z,1015.68
2016-10-11T06:45:00.167Z,1015.68
2016-10-11T06:45:40.704Z,1015.67
2016-10-11T06:46:21.242Z,1015.63
2016-10-11T06:47:01.781Z,1015.63
2016-10-11T06:47:42.327Z,1015.65
2016-10-11T06:48:22.866Z,1015.69
2016-10-11T06:49:03.428Z,1015.69
2016-10-11T06:49:43.949Z,1015.7
2016-10-11T06:50:24.489Z,1015.69
2016-10-11T06:51:05.027Z,1015.71
2016-10-11T06:51:45.589Z,1015.69
2016-10-11T06:52:26.114Z,1015.71
2016-10-11T06:53:06.654Z,1015.68
2016-10-11T06:53:47.192Z,1015.68
2016-10-11T06:54:27.727Z,1015.68
2016-10-11T06:55:08.272Z,1015.65
2016-10-11T06:55:48.811Z,1015.69
2016-10-11T06:56:29.344Z,1015.66
2016-10-11T06:57:09.872Z,1015.66
2016-10-11T06:57:50.405Z,1015.65
2016-10-11T06:58:30.947Z,1015.65
2016-10-11T06:59:11.481Z,1015.64
2016-10-11T06:59:52.031Z,1015.66
2016-10-11T07:00:32.571Z,1015.68
2016-10-11T07:01:13.116Z,1015.73
2016-10-11T07:01:53.655Z,1015.72
2016-10-11T07:02:34.185Z,1015.69
2016-10-11T07:03:14.709Z,1015.74
2016-10-11T07:03:55.249Z,1015.73
2016-10-11T07:04:35.784Z,1015.77
2016-10-11T07:05:16.320Z,1015.76
2016-10-11T07:05:56.860Z,1015.77
2016-10-11T07:06:37.401Z,1015.81
2016-10-11T07:07:17.927Z,1015.79
2016-10-11T07:07:58.473Z,1015.76
2016-10-11T07:08:39.014Z,1015.77
2016-10-11T07:09:19.555Z,1015.79
2016-10-11T07:10:00.098Z,1015.8
2016-10-11T07:10:40.635Z,1015.83
2016-10-11T07:11:21.162Z,1015.82
2016-10-11T07:12:01.691Z,1015.82
2016-10-11T07:12:42.226Z,1015.79
2016-10-11T07:13:22.772Z,1015.8
2016-10-11T07:14:03.307Z,1015.77
2016-10-11T07:14:43.841Z,1015.76
2016-10-11T07:15:24.377Z,1015.74
2016-10-11T07:16:04.918Z,1015.76
2016-10-11T07:16:45.449Z,1015.78
2016-10-11T07:17:25.988Z,1015.76
2016-10-11T07:18:06.517Z,1015.76
2016-10-11T07:18:47.048Z,1015.78
2016-10-11T07:19:27.617Z,1015.77
2016-10-11T07:20:08.117Z,1015.82
2016-10-11T07:20:48.639Z,1015.77
2016-10-11T07:21:29.176Z,1015.75
2016-10-11T07:22:09.713Z,1015.75
2016-10-11T07:22:50.254Z,1015.77
2016-10-11T07:23:30.789Z,1015.77
2016-10-11T07:24:11.332Z,1015.75
2016-10-11T07:24:51.871Z,1015.77
2016-10-11T07:25:32.415Z,1015.78
2016-10-11T07:26:12.974Z,1015.78
2016-10-11T07:26:53.493Z,1015.78
2016-10-11T07:27:34.059Z,1015.8
2016-10-11T07:28:14.589Z,1015.81
2016-10-11T07:28:55.164Z,1015.78
2016-10-11T07:29:35.690Z,1015.78
2016-10-11T07:30:16.284Z,1015.79
2016-10-11T07:30:56.827Z,1015.79
2016-10-11T07:31:37.367Z,1015.78
2016-10-11T07:32:17.920Z,1015.81
2016-10-11T07:32:58.457Z,1015.8
2016-10-11T07:33:38.993Z,1015.82
2016-10-11T07:34:19.525Z,1015.79
2016-10-11T07:35:00.077Z,1015.81
2016-10-11T07:35:40.613Z,1015.82
2016-10-11T07:36:21.147Z,1015.83
2016-10-11T07:37:01.731Z,1015.79
2016-10-11T07:37:42.273Z,1015.84
2016-10-11T07:38:22.813Z,1015.83
2016-10-11T07:39:03.362Z,1015.83
2016-10-11T07:39:43.918Z,1015.81
2016-10-11T07:40:24.461Z,1015.85
2016-10-11T07:41:05.015Z,1015.79
2016-10-11T07:41:45.542Z,1015.82
2016-10-11T07:42:26.067Z,1015.83
2016-10-11T07:43:06.598Z,1015.79
2016-10-11T07:43:47.138Z,1015.81
2016-10-11T07:44:27.670Z,1015.83
2016-10-11T07:45:08.215Z,1015.82
2016-10-11T07:45:48.746Z,1015.82
2016-10-11T07:46:29.280Z,1015.86
2016-10-11T07:47:09.817Z,1015.86
2016-10-11T07:47:50.354Z,1015.83
2016-10-11T07:48:30.891Z,1015.85
2016-10-11T07:49:11.461Z,1015.83
2016-10-11T07:49:52.057Z,1015.85
2016-10-11T07:50:32.579Z,1015.88
2016-10-11T07:51:13.127Z,1015.9
2016-10-11T07:51:53.733Z,1015.89
2016-10-11T07:52:34.323Z,1015.91
2016-10-11T07:53:14.920Z,1015.93
2016-10-11T07:53:55.463Z,1015.9
2016-10-11T07:54:36.028Z,1015.92
2016-10-11T07:55:16.559Z,1015.94
2016-10-11T07:55:57.121Z,1015.94
2016-10-11T07:56:37.719Z,1015.95
2016-10-11T07:57:18.256Z,1015.98
2016-10-11T07:57:58.795Z,1015.94
2016-10-11T07:58:39.338Z,1015.95
2016-10-11T07:59:19.916Z,1016.01
2016-10-11T08:00:00.436Z,1015.98
2016-10-11T08:00:40.980Z,1016.01
2016-10-11T08:01:21.525Z,1016
2016-10-11T08:02:02.067Z,1016.04
2016-10-11T08:02:42.583Z,1015.99
2016-10-11T08:03:23.124Z,1016
2016-10-11T08:04:03.665Z,1016.01
2016-10-11T08:04:44.260Z,1016.03
2016-10-11T08:05:24.800Z,1016.03
2016-10-11T08:06:05.336Z,1016.01
2016-10-11T08:06:45.869Z,1016
2016-10-11T08:07:26.416Z,1016.03
2016-10-11T08:08:06.999Z,1016
2016-10-11T08:08:47.538Z,1016
2016-10-11T08:09:28.091Z,1015.99
2016-10-11T08:10:08.633Z,1016
2016-10-11T08:10:49.155Z,1016.02
2016-10-11T08:11:29.683Z,1016.02
2016-10-11T08:12:10.232Z,1016.01
2016-10-11T08:12:50.806Z,1016
2016-10-11T08:13:31.374Z,1016
2016-10-11T08:14:11.906Z,1016.02
2016-10-11T08:14:52.455Z,1016
2016-10-11T08:15:33.012Z,1016.03
2016-10-11T08:16:13.555Z,1015.99
2016-10-11T08:16:54.094Z,1015.99
2016-10-11T08:17:34.698Z,1016.04
2016-10-11T08:18:15.233Z,1016.01
2016-10-11T08:18:55.763Z,1016
2016-10-11T08:19:36.319Z,1015.97
2016-10-11T08:20:16.851Z,1016.03
2016-10-11T08:20:57.427Z,1016
2016-10-11T08:21:37.962Z,1015.98
2016-10-11T08:22:18.511Z,1015.98
2016-10-11T08:22:59.040Z,1016
2016-10-11T08:23:39.569Z,1016.02
2016-10-11T08:24:20.110Z,1016.01
2016-10-11T08:25:00.638Z,1016.02
2016-10-11T08:25:41.231Z,1016.03
2016-10-11T08:26:21.762Z,1015.98
2016-10-11T08:27:02.351Z,1016.02
2016-10-11T08:27:42.907Z,1016
2016-10-11T08:28:23.502Z,1016
2016-10-11T08:29:04.066Z,1015.97
2016-10-11T08:29:44.606Z,1016